createdAt,value
2022-09-13T00:02:14.387Z,3.00
2022-09-13T00:04:41.229Z,2.93
2022-09-13T00:07:07.764Z,2.83
2022-09-13T00:09:34.359Z,3.13
2022-09-13T00:12:00.988Z,2.93
2022-09-13T00:14:27.535Z,3.10
2022-09-13T00:16:54.106Z,2.70
2022-09-13T00:19:20.699Z,2.87
2022-09-13T00:21:47.280Z,3.07
2022-09-13T00:24:13.961Z,3.40
2022-09-13T00:26:40.568Z,3.03
2022-09-13T00:29:07.230Z,2.60
2022-09-13T00:31:33.829Z,2.63
2022-09-13T00:34:00.772Z,3.10
2022-09-13T00:36:27.767Z,2.93
2022-09-13T00:38:54.433Z,3.07
2022-09-13T00:41:21.645Z,2.83
2022-09-13T00:44:02.337Z,3.20
2022-09-13T00:46:38.839Z,3.07
2022-09-13T00:49:38.157Z,3.33
2022-09-13T00:52:10.574Z,3.23
2022-09-13T00:54:42.640Z,2.70
2022-09-13T00:57:11.567Z,2.97
2022-09-13T00:59:45.246Z,2.50
2022-09-13T01:02:12.353Z,2.77
2022-09-13T01:04:39.566Z,3.13
2022-09-13T01:07:09.371Z,2.53
2022-09-13T01:09:39.952Z,2.73
2022-09-13T01:12:10.236Z,2.80
2022-09-13T01:14:37.609Z,3.60
2022-09-13T01:17:04.816Z,2.90
2022-09-13T01:19:31.952Z,3.07
2022-09-13T01:22:20.858Z,2.87
2022-09-13T01:25:38.360Z,2.97
2022-09-13T01:28:37.839Z,2.67
2022-09-13T01:31:26.475Z,2.97
2022-09-13T01:33:58.766Z,2.83
2022-09-13T01:36:49.606Z,2.50
2022-09-13T01:39:49.595Z,2.70
2022-09-13T01:42:31.676Z,2.90
2022-09-13T01:45:28.659Z,2.60
2022-09-13T01:48:02.221Z,3.30
2022-09-13T01:50:31.884Z,2.97
2022-09-13T01:53:14.591Z,3.00
2022-09-13T01:55:54.378Z,2.77
2022-09-13T01:58:46.904Z,2.90
2022-09-13T02:01:22.208Z,2.83
2022-09-13T02:04:10.376Z,2.87
2022-09-13T02:06:52.561Z,3.20
2022-09-13T02:09:26.177Z,2.93
2022-09-13T02:12:00.933Z,2.83
2022-09-13T02:14:33.923Z,3.03
2022-09-13T02:17:24.245Z,2.50
2022-09-13T02:20:09.335Z,2.77
2022-09-13T02:22:41.986Z,2.73
2022-09-13T02:25:13.843Z,2.57
2022-09-13T02:27:43.909Z,2.97
2022-09-13T02:30:12.626Z,2.73
2022-09-13T02:32:49.499Z,2.83
2022-09-13T02:35:22.053Z,2.90
2022-09-13T02:38:18.355Z,2.80
2022-09-13T02:40:56.338Z,2.37
2022-09-13T02:43:42.012Z,2.80
2022-09-13T02:46:27.653Z,2.43
2022-09-13T02:49:16.955Z,2.30
2022-09-13T02:52:01.160Z,2.23
2022-09-13T02:54:38.276Z,2.30
2022-09-13T02:57:10.910Z,2.73
2022-09-13T02:59:37.568Z,2.03
2022-09-13T03:02:09.160Z,3.00
2022-09-13T03:04:36.476Z,2.60
2022-09-13T03:07:06.046Z,2.77
2022-09-13T03:09:33.802Z,2.43
2022-09-13T03:12:19.548Z,2.63
2022-09-13T03:15:02.249Z,2.47
2022-09-13T03:17:59.667Z,2.50
2022-09-13T03:20:29.249Z,2.33
2022-09-13T03:23:24.993Z,2.27
2022-09-13T03:26:03.687Z,2.60
2022-09-13T03:29:07.056Z,2.40
2022-09-13T03:31:40.908Z,2.30
2022-09-13T03:34:16.900Z,2.47
2022-09-13T03:36:55.814Z,2.40
2022-09-13T03:39:36.964Z,2.80
2022-09-13T03:42:16.120Z,2.20
2022-09-13T03:44:47.689Z,2.47
2022-09-13T03:47:16.344Z,2.50
2022-09-13T03:49:43.184Z,2.93
2022-09-13T03:52:11.197Z,2.60
2022-09-13T03:54:38.772Z,2.17
2022-09-13T03:57:21.447Z,2.27
2022-09-13T03:59:54.053Z,2.30
2022-09-13T04:02:23.411Z,2.87
2022-09-13T04:04:50.378Z,2.17
2022-09-13T04:07:22.013Z,2.13
2022-09-13T04:09:48.816Z,2.33
2022-09-13T04:12:17.402Z,1.87
2022-09-13T04:14:44.207Z,2.30
2022-09-13T04:17:11.685Z,2.73
2022-09-13T04:19:38.674Z,1.77
2022-09-13T04:22:05.285Z,2.10
2022-09-13T04:24:32.067Z,2.30
2022-09-13T04:26:58.985Z,1.97
2022-09-13T04:29:26.809Z,2.30
2022-09-13T04:31:54.844Z,2.50
2022-09-13T04:34:24.526Z,2.27
2022-09-13T04:36:53.050Z,2.40
2022-09-13T04:39:21.177Z,2.53
2022-09-13T04:41:49.747Z,2.30
2022-09-13T04:44:17.534Z,2.13
2022-09-13T04:46:48.274Z,2.37
2022-09-13T04:49:16.318Z,2.10
2022-09-13T04:51:43.414Z,2.37
2022-09-13T04:54:15.248Z,2.27
2022-09-13T04:56:42.929Z,2.30
2022-09-13T04:59:10.985Z,2.20
2022-09-13T05:01:38.513Z,2.03
2022-09-13T05:04:06.687Z,2.20
2022-09-13T05:06:33.958Z,1.93
2022-09-13T05:09:00.592Z,2.47
2022-09-13T05:11:28.727Z,1.73
2022-09-13T05:14:00.295Z,2.57
2022-09-13T05:16:32.694Z,2.13
2022-09-13T05:19:00.180Z,2.30
2022-09-13T05:21:27.954Z,2.30
2022-09-13T05:23:55.775Z,2.23
2022-09-13T05:26:24.966Z,1.80
2022-09-13T05:28:51.780Z,2.10
2022-09-13T05:31:31.409Z,2.80
2022-09-13T05:34:03.621Z,2.27
2022-09-13T05:36:30.406Z,2.77
2022-09-13T05:39:19.191Z,2.37
2022-09-13T05:41:45.658Z,2.70
2022-09-13T05:44:13.511Z,2.83
2022-09-13T05:46:41.144Z,3.43
2022-09-13T05:49:07.769Z,2.67
2022-09-13T05:51:34.537Z,2.77
2022-09-13T05:54:02.156Z,2.37
2022-09-13T05:56:30.148Z,2.63
2022-09-13T05:58:57.196Z,2.80
2022-09-13T06:01:29.050Z,3.00
2022-09-13T06:03:59.792Z,2.47
2022-09-13T06:06:26.594Z,2.67
2022-09-13T06:08:54.784Z,2.20
2022-09-13T06:11:21.817Z,2.30
2022-09-13T06:13:48.968Z,2.00
2022-09-13T06:16:17.123Z,2.27
2022-09-13T06:18:44.704Z,2.30
2022-09-13T06:21:20.540Z,2.23
2022-09-13T06:23:48.897Z,2.30
2022-09-13T06:26:17.782Z,2.23
2022-09-13T06:28:49.236Z,1.87
2022-09-13T06:31:18.021Z,1.87
2022-09-13T06:33:45.569Z,1.87
2022-09-13T06:36:14.800Z,2.37
2022-09-13T06:38:42.198Z,2.10
2022-09-13T06:41:13.915Z,2.40
2022-09-13T06:43:41.928Z,2.37
2022-09-13T06:46:09.940Z,2.60
2022-09-13T06:48:38.968Z,2.50
2022-09-13T06:51:09.083Z,1.83
2022-09-13T06:53:37.262Z,1.90
2022-09-13T06:56:13.064Z,1.60
2022-09-13T06:58:41.618Z,2.00
2022-09-13T07:01:12.610Z,2.17
2022-09-13T07:03:41.922Z,2.00
2022-09-13T07:06:21.501Z,2.00
2022-09-13T07:08:51.116Z,1.53
2022-09-13T07:11:19.360Z,1.87
2022-09-13T07:13:50.551Z,1.60
2022-09-13T07:16:19.093Z,2.17
2022-09-13T07:18:46.528Z,2.00
2022-09-13T07:21:13.233Z,1.93
2022-09-13T07:23:40.092Z,1.97
2022-09-13T07:26:07.766Z,2.07
2022-09-13T07:28:37.605Z,1.70
2022-09-13T07:31:15.347Z,2.03
2022-09-13T07:33:43.544Z,1.87
2022-09-13T07:36:12.096Z,1.50
2022-09-13T07:38:41.047Z,1.90
2022-09-13T07:41:11.412Z,1.93
2022-09-13T07:43:38.332Z,1.80
2022-09-13T07:46:13.668Z,2.20
2022-09-13T07:48:42.322Z,1.90
2022-09-13T07:51:11.937Z,2.07
2022-09-13T07:53:39.961Z,1.97
2022-09-13T07:56:09.155Z,2.00
2022-09-13T07:58:37.731Z,2.23
2022-09-13T08:01:11.241Z,1.63
2022-09-13T08:03:38.686Z,1.90
2022-09-13T08:06:06.575Z,1.97
2022-09-13T08:08:34.565Z,2.00
2022-09-13T08:11:01.844Z,1.97
2022-09-13T08:13:29.014Z,1.63
2022-09-13T08:15:56.416Z,1.80
2022-09-13T08:18:23.083Z,1.60
2022-09-13T08:20:49.745Z,1.60
2022-09-13T08:23:16.399Z,1.50
2022-09-13T08:25:43.086Z,1.47
2022-09-13T08:28:18.343Z,1.80
2022-09-13T08:30:45.154Z,1.67
2022-09-13T08:33:12.315Z,1.60
2022-09-13T08:35:39.665Z,1.87
2022-09-13T08:38:07.595Z,1.77
2022-09-13T08:40:41.393Z,1.63
2022-09-13T08:43:26.753Z,1.30
2022-09-13T08:46:15.383Z,1.50
2022-09-13T08:48:46.522Z,1.53
2022-09-13T08:51:41.989Z,1.70
2022-09-13T08:54:12.415Z,1.80
2022-09-13T08:56:45.034Z,1.60
2022-09-13T08:59:26.653Z,1.40
2022-09-13T09:02:31.713Z,1.50
2022-09-13T09:05:07.141Z,1.30
2022-09-13T09:07:42.928Z,1.30
2022-09-13T09:10:24.122Z,1.90
2022-09-13T09:12:56.010Z,1.27
2022-09-13T09:15:22.554Z,1.33
2022-09-13T09:17:55.929Z,1.60
2022-09-13T09:20:43.003Z,1.70
2022-09-13T09:23:26.790Z,1.40
2022-09-13T09:25:58.255Z,1.40
2022-09-13T09:28:25.639Z,1.60
2022-09-13T09:30:52.185Z,1.50
2022-09-13T09:34:00.123Z,1.57
2022-09-13T09:36:44.566Z,1.70
2022-09-13T09:39:14.288Z,1.80
2022-09-13T09:41:41.055Z,1.67
2022-09-13T09:44:22.724Z,1.50
2022-09-13T09:47:05.080Z,1.27
2022-09-13T09:50:02.582Z,1.70
2022-09-13T09:52:53.658Z,1.63
2022-09-13T09:55:40.215Z,1.57
2022-09-13T09:58:11.294Z,1.37
2022-09-13T10:00:57.386Z,1.50
2022-09-13T10:03:29.828Z,1.57
2022-09-13T10:06:09.712Z,1.43
2022-09-13T10:08:38.561Z,1.53
2022-09-13T10:11:06.764Z,1.60
2022-09-13T10:13:33.673Z,2.00
2022-09-13T10:16:03.827Z,1.37
2022-09-13T10:18:43.980Z,1.40
2022-09-13T10:21:17.307Z,1.47
2022-09-13T10:23:45.204Z,1.87
2022-09-13T10:26:17.075Z,1.80
2022-09-13T10:29:05.924Z,1.77
2022-09-13T10:31:38.221Z,1.47
2022-09-13T10:34:17.566Z,1.87
2022-09-13T10:36:56.612Z,1.77
2022-09-13T10:39:25.259Z,1.97
2022-09-13T10:41:59.354Z,1.40
2022-09-13T10:44:28.686Z,1.60
2022-09-13T10:46:56.597Z,2.20
2022-09-13T10:49:46.684Z,1.73
2022-09-13T10:52:44.826Z,2.10
2022-09-13T10:55:20.467Z,2.00
2022-09-13T10:58:03.141Z,1.53
2022-09-13T11:00:45.659Z,1.70
2022-09-13T11:03:18.024Z,1.87
2022-09-13T11:05:56.349Z,1.83
2022-09-13T11:09:02.181Z,1.80
2022-09-13T11:11:52.598Z,1.60
2022-09-13T11:14:36.437Z,1.60
2022-09-13T11:17:16.899Z,1.73
2022-09-13T11:20:13.814Z,1.47
2022-09-13T11:22:43.114Z,1.40
2022-09-13T11:25:44.935Z,1.70
2022-09-13T11:28:53.246Z,1.80
2022-09-13T11:32:02.252Z,1.50
2022-09-13T11:34:56.140Z,1.60
2022-09-13T11:46:42.528Z,1.50
2022-09-13T11:49:30.828Z,1.40
2022-09-13T11:52:16.578Z,1.70
2022-09-13T11:54:58.269Z,1.57
2022-09-13T11:57:29.830Z,1.50
2022-09-13T12:00:02.512Z,1.53
2022-09-13T12:02:44.288Z,1.30
2022-09-13T12:05:24.948Z,1.37
2022-09-13T12:08:10.161Z,1.30
2022-09-13T12:11:02.630Z,2.00
2022-09-13T12:13:57.407Z,1.60
2022-09-13T12:16:36.381Z,1.50
2022-09-13T12:19:14.263Z,1.60
2022-09-13T12:21:43.863Z,1.53
2022-09-13T12:24:37.514Z,1.43
2022-09-13T12:27:39.950Z,1.73
2022-09-13T12:30:15.507Z,1.67
2022-09-13T12:32:45.003Z,1.40
2022-09-13T12:35:22.124Z,1.57
2022-09-13T12:38:07.514Z,1.20
2022-09-13T12:40:46.424Z,1.50
2022-09-13T12:43:23.018Z,1.47
2022-09-13T12:46:16.072Z,1.47
2022-09-13T12:49:31.023Z,1.50
2022-09-13T12:52:29.437Z,1.60
2022-09-13T12:55:46.478Z,1.50
2022-09-13T12:58:43.222Z,1.40
2022-09-13T13:01:16.926Z,1.80
2022-09-13T13:03:57.002Z,1.40
2022-09-13T13:06:33.876Z,1.30
2022-09-13T13:09:05.767Z,1.47
2022-09-13T13:11:45.310Z,1.73
2022-09-13T13:14:29.643Z,1.40
2022-09-13T13:17:34.423Z,1.77
2022-09-13T13:20:01.659Z,1.30
2022-09-13T13:22:43.048Z,1.33
2022-09-13T13:25:31.470Z,1.67
2022-09-13T13:27:58.916Z,1.77
2022-09-13T13:30:59.343Z,1.57
2022-09-13T13:33:28.934Z,1.50
2022-09-13T13:35:55.869Z,1.70
2022-09-13T13:38:28.527Z,1.83
2022-09-13T13:41:12.174Z,1.70
2022-09-13T13:43:39.489Z,1.60
2022-09-13T13:46:11.930Z,1.90
2022-09-13T13:48:42.640Z,1.80
2022-09-13T13:51:11.998Z,1.90
2022-09-13T13:53:40.047Z,1.97
2022-09-13T13:56:28.089Z,2.03
2022-09-13T13:59:00.343Z,1.80
2022-09-13T14:01:31.847Z,1.90
2022-09-13T14:04:02.404Z,2.07
2022-09-13T14:06:33.458Z,1.90
2022-09-13T14:09:23.301Z,2.00
2022-09-13T14:11:58.582Z,2.10
2022-09-13T14:14:43.591Z,1.90
2022-09-13T14:17:14.189Z,1.70
2022-09-13T14:19:43.259Z,1.80
2022-09-13T14:22:14.537Z,1.77
2022-09-13T14:24:51.231Z,2.17
2022-09-13T14:27:20.002Z,1.90
2022-09-13T14:29:53.407Z,1.80
2022-09-13T14:32:23.103Z,2.00
2022-09-13T14:35:02.013Z,2.23
2022-09-13T14:37:33.210Z,2.00
2022-09-13T14:40:20.452Z,2.10
2022-09-13T14:42:49.702Z,2.03
2022-09-13T14:45:18.661Z,2.00
2022-09-13T14:48:10.797Z,2.30
2022-09-13T14:50:41.641Z,1.87
2022-09-13T14:53:18.731Z,1.70
2022-09-13T14:56:01.631Z,1.83
2022-09-13T14:58:44.036Z,1.87
2022-09-13T15:01:14.233Z,1.87
2022-09-13T15:03:43.639Z,1.60
2022-09-13T15:06:25.901Z,1.77
2022-09-13T15:08:56.323Z,1.90
2022-09-13T15:11:35.534Z,1.80
2022-09-13T15:14:21.136Z,1.93
2022-09-13T15:17:02.257Z,2.00
2022-09-13T15:19:40.982Z,1.90
2022-09-13T15:22:15.446Z,2.50
2022-09-13T15:24:56.290Z,1.80
2022-09-13T15:27:42.740Z,1.70
2022-09-13T15:30:39.259Z,1.80
2022-09-13T15:33:09.880Z,1.90
2022-09-13T15:35:41.922Z,1.70
2022-09-13T15:38:30.967Z,2.20
2022-09-13T15:41:19.181Z,1.90
2022-09-13T15:43:48.405Z,2.03
2022-09-13T15:46:16.933Z,2.20
2022-09-13T15:48:53.611Z,2.10
2022-09-13T15:51:21.094Z,2.10
2022-09-13T15:53:47.711Z,1.90
2022-09-13T15:56:28.238Z,2.30
2022-09-13T15:58:54.826Z,2.07
2022-09-13T16:01:21.494Z,2.47
2022-09-13T16:03:48.197Z,2.03
2022-09-13T16:06:14.936Z,2.40
2022-09-13T16:08:41.577Z,2.30
2022-09-13T16:11:08.435Z,2.30
2022-09-13T16:13:36.254Z,2.23
2022-09-13T16:16:05.306Z,2.27
2022-09-13T16:18:32.476Z,2.97
2022-09-13T16:21:00.441Z,2.93
2022-09-13T16:23:27.180Z,2.90
2022-09-13T16:25:58.622Z,2.90
2022-09-13T16:28:25.682Z,2.47
2022-09-13T16:30:53.283Z,2.67
2022-09-13T16:33:20.200Z,2.17
2022-09-13T16:35:47.754Z,2.23
2022-09-13T16:38:14.713Z,2.00
2022-09-13T16:40:42.617Z,1.93
2022-09-13T16:43:09.848Z,2.20
2022-09-13T16:45:39.852Z,2.33
2022-09-13T16:48:07.222Z,2.13
2022-09-13T16:50:35.065Z,2.30
2022-09-13T16:53:02.198Z,2.90
2022-09-13T16:55:28.950Z,2.23
2022-09-13T16:57:56.136Z,2.83
2022-09-13T17:00:24.574Z,3.03
2022-09-13T17:02:51.804Z,2.80
2022-09-13T17:05:18.481Z,3.00
2022-09-13T17:07:45.259Z,2.80
2022-09-13T17:10:12.734Z,2.77
2022-09-13T17:12:40.622Z,2.80
2022-09-13T17:15:07.826Z,2.17
2022-09-13T17:17:36.347Z,2.80
2022-09-13T17:20:08.521Z,2.70
2022-09-13T17:22:35.184Z,2.37
2022-09-13T17:25:02.197Z,2.70
2022-09-13T17:27:29.069Z,3.10
2022-09-13T17:29:55.923Z,2.43
2022-09-13T17:32:22.563Z,3.00
2022-09-13T17:34:49.837Z,2.70
2022-09-13T17:37:16.486Z,2.50
2022-09-13T17:39:43.260Z,2.50
2022-09-13T17:42:10.932Z,2.50
2022-09-13T17:44:37.591Z,2.43
2022-09-13T17:47:06.520Z,2.60
2022-09-13T17:49:34.224Z,2.70
2022-09-13T17:52:02.542Z,2.50
2022-09-13T17:54:29.274Z,2.30
2022-09-13T17:56:56.019Z,2.60
2022-09-13T17:59:24.189Z,2.60
2022-09-13T18:01:53.265Z,2.80
2022-09-13T18:04:23.009Z,2.60
2022-09-13T18:06:52.627Z,2.30
2022-09-13T18:09:19.768Z,2.30
2022-09-13T18:11:46.944Z,2.63
2022-09-13T18:14:16.661Z,2.57
2022-09-13T18:16:45.691Z,2.50
2022-09-13T18:19:12.980Z,2.90
2022-09-13T18:21:41.496Z,2.47
2022-09-13T18:24:08.294Z,2.67
2022-09-13T18:26:39.930Z,2.83
2022-09-13T18:29:11.211Z,2.50
2022-09-13T18:31:39.728Z,2.47
2022-09-13T18:34:12.493Z,2.23
2022-09-13T18:36:39.803Z,2.80
2022-09-13T18:39:11.510Z,2.80
2022-09-13T18:41:47.369Z,2.50
2022-09-13T18:44:15.626Z,2.70
2022-09-13T18:46:43.384Z,2.70
2022-09-13T18:49:10.963Z,2.67
2022-09-13T18:51:43.687Z,2.27
2022-09-13T18:54:13.492Z,2.47
2022-09-13T18:56:40.304Z,2.70
2022-09-13T18:59:07.728Z,2.40
2022-09-13T19:01:36.678Z,2.53
2022-09-13T19:04:11.061Z,2.33
2022-09-13T19:06:46.676Z,2.70
2022-09-13T19:09:14.528Z,2.60
2022-09-13T19:11:47.243Z,2.60
2022-09-13T19:14:20.100Z,2.80
2022-09-13T19:16:49.185Z,2.77
2022-09-13T19:19:16.931Z,2.73
2022-09-13T19:21:43.966Z,2.43
2022-09-13T19:24:17.726Z,2.83
2022-09-13T19:26:47.836Z,2.43
2022-09-13T19:29:21.489Z,2.77
2022-09-13T19:31:49.648Z,2.30
2022-09-13T19:34:24.392Z,2.27
2022-09-13T19:36:57.414Z,2.43
2022-09-13T19:39:29.158Z,2.40
2022-09-13T19:42:00.142Z,2.33
2022-09-13T19:44:27.354Z,2.53
2022-09-13T19:47:23.858Z,2.53
2022-09-13T19:49:40.587Z,2.73
2022-09-13T19:52:08.321Z,2.40
2022-09-13T19:54:35.198Z,2.57
2022-09-13T19:57:04.128Z,2.40
2022-09-13T19:59:31.632Z,2.53
2022-09-13T20:01:58.431Z,2.37
2022-09-13T20:04:26.089Z,2.50
2022-09-13T20:06:52.771Z,2.70
2022-09-13T20:09:20.828Z,2.50
2022-09-13T20:11:48.790Z,2.50
2022-09-13T20:14:19.028Z,2.47
2022-09-13T20:16:46.323Z,2.47
2022-09-13T20:22:06.569Z,2.20
2022-09-13T20:24:33.556Z,2.40
2022-09-13T20:27:00.262Z,2.00
2022-09-13T20:29:26.966Z,2.50
2022-09-13T20:31:55.452Z,2.63
2022-09-13T20:34:22.358Z,2.57
2022-09-13T20:36:49.051Z,2.50
2022-09-13T20:39:16.146Z,2.40
2022-09-13T20:41:43.612Z,2.60
2022-09-13T20:44:10.797Z,2.90
2022-09-13T20:46:39.274Z,2.33
2022-09-13T20:49:08.531Z,2.00
2022-09-13T20:51:35.432Z,2.33
2022-09-13T20:54:02.188Z,2.57
2022-09-13T20:56:30.425Z,2.70
2022-09-13T20:59:00.572Z,2.10
2022-09-13T21:01:29.733Z,2.33
2022-09-13T21:03:56.984Z,2.10
2022-09-13T21:06:26.044Z,2.40
2022-09-13T21:08:53.994Z,2.47
2022-09-13T21:11:30.184Z,2.23
2022-09-13T21:14:00.173Z,2.30
2022-09-13T21:16:33.228Z,2.50
2022-09-13T21:19:03.406Z,2.07
2022-09-13T21:21:32.429Z,2.23
2022-09-13T21:24:00.536Z,2.53
2022-09-13T21:26:28.837Z,2.37
2022-09-13T21:28:56.879Z,2.10
2022-09-13T21:31:28.119Z,2.07
2022-09-13T21:34:04.150Z,2.20
2022-09-13T21:36:32.429Z,2.23
2022-09-13T21:38:59.038Z,2.30
2022-09-13T21:41:26.795Z,2.03
2022-09-13T21:43:54.522Z,2.10
2022-09-13T21:46:26.963Z,2.50
2022-09-13T21:49:00.381Z,2.17
2022-09-13T21:51:34.177Z,2.20
2022-09-13T21:54:02.587Z,2.20
2022-09-13T21:56:30.885Z,2.53
2022-09-13T21:59:00.158Z,2.27
2022-09-13T22:01:34.124Z,2.13
2022-09-13T22:04:03.055Z,1.77
2022-09-13T22:06:35.418Z,2.20
2022-09-13T22:09:08.223Z,3.20
2022-09-13T22:11:41.516Z,2.53
2022-09-13T22:14:17.185Z,2.70
2022-09-13T22:16:47.974Z,3.50
2022-09-13T22:19:22.722Z,3.73
2022-09-13T22:21:53.380Z,4.43
2022-09-13T22:24:23.188Z,4.40
2022-09-13T22:26:53.241Z,3.90
2022-09-13T22:29:21.513Z,4.00
2022-09-13T22:31:50.613Z,3.93
2022-09-13T22:34:22.161Z,3.97
2022-09-13T22:36:49.279Z,3.87
2022-09-13T22:39:17.412Z,4.13
2022-09-13T22:41:44.865Z,3.90
2022-09-13T22:44:11.991Z,4.07
2022-09-13T22:46:42.151Z,4.10
2022-09-13T22:49:12.573Z,3.83
2022-09-13T22:51:39.443Z,4.33
2022-09-13T22:54:08.044Z,4.23
2022-09-13T22:56:36.098Z,3.50
2022-09-13T22:59:07.255Z,4.33
2022-09-13T23:01:34.846Z,4.30
2022-09-13T23:04:02.624Z,3.70
2022-09-13T23:06:29.982Z,4.20
2022-09-13T23:09:00.116Z,4.00
2022-09-13T23:11:38.639Z,4.40
2022-09-13T23:14:07.654Z,4.03
2022-09-13T23:16:37.881Z,3.93
2022-09-13T23:19:05.349Z,3.60
2022-09-13T23:21:35.888Z,3.87
2022-09-13T23:24:04.325Z,4.07
2022-09-13T23:26:31.339Z,3.83
2022-09-13T23:29:00.545Z,4.67
2022-09-13T23:31:29.845Z,4.50
2022-09-13T23:33:59.708Z,4.23
2022-09-13T23:36:29.325Z,4.37
2022-09-13T23:38:58.418Z,4.03
2022-09-13T23:41:26.232Z,4.17
2022-09-13T23:43:54.235Z,4.13
2022-09-13T23:46:21.957Z,4.60
2022-09-13T23:48:49.631Z,4.67
2022-09-13T23:51:23.098Z,4.47
2022-09-13T23:53:50.907Z,4.07
2022-09-13T23:56:17.833Z,4.93
2022-09-13T23:58:44.625Z,4.70
